Holland, MA (01521)

2:50 AM EDT on March 28, 2017 (GMT -0400)
Main St Wales | | Change Station

Elev 902 ft 42.07 °N, 72.21 °W | Updated 34 seconds ago

Fog
Fog
34.9 °F
Feels Like 35 °F
N
0.0
Wind Variable Wind from South
Gusts 0.0 mph

Today
High -- | Low -- °F
--% Chance of Precip.
Yesterday
High -- | Low -- °F
Precip. -- in
Pressure 30.02 in
Visibility 0.2 miles
Clouds
Windchill 35 °F
Dew Point 34 °F
Humidity 98%
Rainfall 0.00 in
Snow Depth Not available.
6:37 AM 7:10 PM
New Moon, 0% visible
METAR KORH 280554Z AUTO 00000KT 1/4SM R11/1400FT FG VV002 02/01 A2999 RMK AO2 SLP165 T00170006 10028 20017 58002
Pressure 30.02 in
Visibility 0.2 miles
Clouds
Windchill 35 °F
Dew Point 34 °F
Humidity 98%
Rainfall 0.00 in
Snow Depth Not available.
6:37 AM 7:10 PM
New Moon, 0% visible
METAR KORH 280554Z AUTO 00000KT 1/4SM R11/1400FT FG VV002 02/01 A2999 RMK AO2 SLP165 T00170006 10028 20017 58002

Get Severe Weather Alerts

Thanks for signing up!

Be on the lookout for a verification email in your inbox.

You'll start receiving the daily forecast at 8 AM.

×

10-Day Weather Forecast

Almanac

Astronomy

Mar. 28, 2017 Rise Set
Actual Time
Civil Twilight
Nautical Twilight
Astronomical Twilight
Moon
Length of Visible Light
Length of Day
Tomorrow will be .
, % of the Moon is Illuminated

Today's Extremes

State Highs State Lows

Community

WunderPhotos

Upload Photos

1,962,540 photos uploaded!

WunderBlog® & News

Nearby

Air Quality

  Air Quality AQ Index Pollutant
Not available.

Snow Depth

Station Depth Elevation

Earthquake Activity

City Distance Mag. Time & Date
Minimum magnitude displayed is 2.5.

Earthquake Activity

City Distance Mag. Time & Date
Minimum magnitude displayed is 2.5.

Coastal Water Temperatures

Place Temperature

Stations

Nearby Weather Stations

Station Location Temp. Windchill Dew Point Humidity Wind Precip. Elev Updated Type
                   

Watches & Warnings

There are currently no watches in effect.